createdAt,value
2022-11-16T00:01:27.278Z,1.55
2022-11-16T00:04:00.667Z,1.55
2022-11-16T00:06:31.377Z,1.85
2022-11-16T00:09:22.160Z,1.55
2022-11-16T00:11:56.948Z,1.38
2022-11-16T00:14:29.787Z,1.80
2022-11-16T00:17:00.655Z,1.77
2022-11-16T00:19:31.104Z,1.83
2022-11-16T00:22:01.562Z,1.70
2022-11-16T00:24:31.806Z,1.90
2022-11-16T00:27:02.143Z,1.52
2022-11-16T00:29:32.826Z,1.65
2022-11-16T00:32:03.109Z,1.50
2022-11-16T00:34:33.368Z,1.67
2022-11-16T00:37:03.943Z,2.13
2022-11-16T00:39:34.304Z,1.90
2022-11-16T00:42:04.470Z,2.13
2022-11-16T00:44:34.871Z,1.90
2022-11-16T00:47:05.314Z,1.73
2022-11-16T00:52:05.459Z,1.42
2022-11-16T00:54:35.706Z,1.65
2022-11-16T00:57:06.228Z,2.13
2022-11-16T00:59:36.318Z,1.98
2022-11-16T01:02:06.591Z,1.88
2022-11-16T01:04:36.766Z,1.83
2022-11-16T01:07:08.150Z,2.83
2022-11-16T01:09:38.509Z,3.72
2022-11-16T01:12:11.785Z,3.17
2022-11-16T01:14:44.349Z,2.85
2022-11-16T01:17:16.323Z,3.13
2022-11-16T01:19:46.662Z,3.38
2022-11-16T01:22:16.963Z,3.20
2022-11-16T01:24:50.127Z,3.28
2022-11-16T01:27:20.409Z,3.25
2022-11-16T01:29:50.772Z,2.47
2022-11-16T01:32:21.127Z,2.33
2022-11-16T01:34:52.190Z,2.15
2022-11-16T01:37:34.400Z,2.40
2022-11-16T01:40:05.900Z,1.80
2022-11-16T01:42:37.044Z,1.70
2022-11-16T01:45:25.643Z,1.88
2022-11-16T01:47:59.109Z,1.60
2022-11-16T01:50:33.422Z,1.33
2022-11-16T01:53:07.411Z,1.70
2022-11-16T01:55:54.587Z,1.50
2022-11-16T01:58:48.220Z,1.33
2022-11-16T02:01:26.230Z,1.50
2022-11-16T02:04:01.388Z,1.48
2022-11-16T02:07:18.519Z,1.48
2022-11-16T02:10:07.095Z,1.75
2022-11-16T02:13:03.540Z,1.45
2022-11-16T02:16:05.529Z,1.48
2022-11-16T02:19:01.529Z,1.73
2022-11-16T02:21:46.878Z,1.63
2022-11-16T02:24:34.096Z,1.90
2022-11-16T02:27:13.525Z,1.50
2022-11-16T02:29:52.052Z,1.67
2022-11-16T02:32:26.566Z,1.52
2022-11-16T02:35:00.318Z,1.60
2022-11-16T02:37:39.894Z,1.27
2022-11-16T02:40:13.796Z,1.60
2022-11-16T02:42:55.411Z,1.48
2022-11-16T02:45:30.329Z,1.52
2022-11-16T02:48:06.569Z,1.30
2022-11-16T02:50:38.567Z,1.23
2022-11-16T02:53:08.995Z,1.42
2022-11-16T02:55:39.531Z,1.98
2022-11-16T02:58:12.906Z,1.30
2022-11-16T03:00:58.282Z,1.35
2022-11-16T03:03:52.477Z,1.30
2022-11-16T03:06:31.947Z,0.93
2022-11-16T03:09:13.758Z,0.85
2022-11-16T03:12:01.316Z,1.48
2022-11-16T03:14:51.073Z,1.17
2022-11-16T03:17:49.234Z,1.00
2022-11-16T03:20:31.471Z,1.00
2022-11-16T03:23:05.583Z,1.00
2022-11-16T03:25:53.207Z,1.20
2022-11-16T03:28:32.892Z,0.80
2022-11-16T03:31:20.518Z,1.15
2022-11-16T03:33:54.563Z,0.85
2022-11-16T03:36:36.905Z,1.00
2022-11-16T03:39:13.511Z,1.13
2022-11-16T03:41:46.001Z,1.10
2022-11-16T03:44:19.108Z,1.25
2022-11-16T03:46:50.137Z,0.90
2022-11-16T03:49:23.923Z,0.90
2022-11-16T03:51:56.017Z,0.82
2022-11-16T03:56:56.103Z,0.93
2022-11-16T04:01:56.377Z,0.77
2022-11-16T04:04:45.011Z,1.10
2022-11-16T04:07:33.386Z,1.20
2022-11-16T04:10:22.115Z,0.80
2022-11-16T04:13:10.885Z,1.10
2022-11-16T04:18:48.221Z,0.90
2022-11-16T04:22:00.200Z,1.02
2022-11-16T04:24:38.674Z,1.45
2022-11-16T04:27:51.230Z,1.08
2022-11-16T04:30:21.655Z,1.00
2022-11-16T04:33:10.506Z,0.80
2022-11-16T04:35:58.621Z,1.20
2022-11-16T04:38:28.946Z,1.15
2022-11-16T04:43:28.646Z,1.05
2022-11-16T04:46:17.304Z,1.20
2022-11-16T04:48:47.539Z,1.02
2022-11-16T04:53:47.480Z,0.40
2022-11-16T04:56:22.411Z,0.40
2022-11-16T04:58:52.670Z,1.00
2022-11-16T05:01:45.714Z,1.45
2022-11-16T05:04:16.106Z,0.57
2022-11-16T05:06:46.518Z,0.90
2022-11-16T05:09:17.499Z,0.82
2022-11-16T05:11:48.483Z,0.60
2022-11-16T05:14:18.538Z,1.00
2022-11-16T05:16:49.404Z,0.60
2022-11-16T05:19:38.608Z,0.60
2022-11-16T05:22:09.470Z,1.02
2022-11-16T05:24:40.194Z,0.82
2022-11-16T05:27:12.985Z,0.90
2022-11-16T05:29:44.202Z,0.63
2022-11-16T05:32:19.125Z,0.63
2022-11-16T05:34:50.238Z,0.60
2022-11-16T05:37:22.460Z,0.88
2022-11-16T05:39:52.820Z,0.75
2022-11-16T05:42:25.498Z,1.02
2022-11-16T05:44:56.163Z,0.60
2022-11-16T05:47:26.530Z,0.93
2022-11-16T05:49:57.135Z,0.98
2022-11-16T05:52:29.485Z,0.88
2022-11-16T05:55:04.552Z,0.88
2022-11-16T05:57:39.005Z,1.05
2022-11-16T06:02:44.968Z,0.75
2022-11-16T06:05:23.108Z,1.30
2022-11-16T06:07:53.652Z,0.88
2022-11-16T06:10:42.711Z,1.10
2022-11-16T06:13:31.378Z,1.00
2022-11-16T06:16:05.032Z,1.20
2022-11-16T06:18:42.045Z,1.05
2022-11-16T06:21:14.170Z,0.95
2022-11-16T06:23:44.728Z,1.40
2022-11-16T06:26:15.222Z,1.17
2022-11-16T06:28:46.170Z,1.05
2022-11-16T06:31:16.861Z,1.30
2022-11-16T06:33:48.090Z,0.95
2022-11-16T06:36:23.707Z,1.02
2022-11-16T06:38:54.101Z,1.73
2022-11-16T06:41:25.407Z,1.45
2022-11-16T06:43:56.166Z,1.25
2022-11-16T06:46:33.500Z,1.73
2022-11-16T06:49:04.009Z,3.03
2022-11-16T06:51:35.863Z,2.72
2022-11-16T06:54:07.607Z,2.70
2022-11-16T06:56:39.069Z,3.20
2022-11-16T06:59:10.384Z,4.07
2022-11-16T07:01:41.086Z,3.25
2022-11-16T07:04:17.304Z,3.40
2022-11-16T07:06:54.570Z,2.90
2022-11-16T07:09:24.789Z,2.58
2022-11-16T07:11:55.535Z,2.63
2022-11-16T07:14:26.440Z,1.80
2022-11-16T07:17:00.393Z,2.00
2022-11-16T07:19:32.280Z,1.42
2022-11-16T07:22:02.934Z,2.15
2022-11-16T07:24:33.990Z,1.40
2022-11-16T07:27:04.619Z,1.10
2022-11-16T07:29:38.640Z,1.25
2022-11-16T07:32:34.652Z,1.35
2022-11-16T07:35:16.605Z,2.05
2022-11-16T07:37:46.924Z,1.70
2022-11-16T07:40:18.570Z,2.10
2022-11-16T07:42:49.530Z,2.13
2022-11-16T07:45:35.772Z,2.58
2022-11-16T07:48:10.879Z,1.60
2022-11-16T07:51:18.854Z,1.73
2022-11-16T07:54:09.570Z,1.80
2022-11-16T07:56:39.966Z,1.60
2022-11-16T07:59:10.740Z,1.63
2022-11-16T08:01:48.205Z,1.50
2022-11-16T08:04:19.814Z,2.03
2022-11-16T08:06:52.955Z,1.92
2022-11-16T08:09:24.319Z,2.35
2022-11-16T08:11:56.199Z,1.95
2022-11-16T08:14:26.918Z,2.10
2022-11-16T08:16:59.112Z,2.10
2022-11-16T08:21:59.316Z,2.35
2022-11-16T08:24:35.248Z,2.25
2022-11-16T08:27:05.910Z,2.28
2022-11-16T08:29:36.150Z,2.65
2022-11-16T08:32:09.296Z,2.60
2022-11-16T08:34:39.992Z,2.50
2022-11-16T08:39:43.036Z,3.55
2022-11-16T08:42:13.325Z,4.32
2022-11-16T08:44:47.572Z,4.10
2022-11-16T08:47:20.783Z,5.43
2022-11-16T08:49:54.838Z,4.80
2022-11-16T08:52:27.363Z,3.92
2022-11-16T08:54:58.812Z,3.83
2022-11-16T08:57:29.298Z,3.38
2022-11-16T09:00:02.347Z,3.35
2022-11-16T09:02:32.888Z,3.50
2022-11-16T09:05:03.094Z,3.47
2022-11-16T09:07:33.779Z,3.33
2022-11-16T09:10:04.043Z,3.40
2022-11-16T09:12:38.202Z,3.60
2022-11-16T09:15:08.973Z,4.03
2022-11-16T09:17:39.275Z,3.25
2022-11-16T09:22:39.534Z,3.03
2022-11-16T09:27:41.307Z,2.92
2022-11-16T09:30:13.051Z,3.30
2022-11-16T09:32:43.503Z,3.22
2022-11-16T09:37:43.340Z,2.15
2022-11-16T09:40:13.953Z,2.10
2022-11-16T09:43:18.428Z,2.42
2022-11-16T09:46:02.477Z,2.08
2022-11-16T09:48:35.721Z,2.22
2022-11-16T09:51:09.576Z,2.42
2022-11-16T09:53:43.700Z,2.13
2022-11-16T09:56:28.399Z,2.42
2022-11-16T09:59:16.710Z,3.25
2022-11-16T10:01:54.747Z,2.85
2022-11-16T10:04:58.152Z,2.17
2022-11-16T10:07:38.971Z,1.83
2022-11-16T10:10:18.517Z,2.15
2022-11-16T10:13:04.164Z,2.00
2022-11-16T10:15:49.871Z,2.40
2022-11-16T10:18:35.290Z,2.00
2022-11-16T10:21:34.432Z,1.58
2022-11-16T10:24:32.900Z,1.63
2022-11-16T10:27:47.932Z,1.55
2022-11-16T10:30:23.258Z,1.70
2022-11-16T10:33:09.650Z,2.00
2022-11-16T10:35:57.308Z,1.95
2022-11-16T10:38:34.471Z,1.52
2022-11-16T10:41:37.045Z,1.50
2022-11-16T10:44:19.434Z,1.30
2022-11-16T10:47:13.447Z,1.42
2022-11-16T10:49:58.580Z,1.73
2022-11-16T10:52:29.344Z,2.05
2022-11-16T10:54:59.577Z,1.77
2022-11-16T11:00:47.770Z,1.75
2022-11-16T11:03:32.877Z,1.70
2022-11-16T11:06:03.718Z,1.23
2022-11-16T11:08:33.998Z,1.40
2022-11-16T11:14:12.839Z,1.10
2022-11-16T11:16:43.583Z,1.80
2022-11-16T11:19:33.807Z,1.95
2022-11-16T11:22:04.169Z,1.55
2022-11-16T11:24:49.817Z,1.10
2022-11-16T11:27:26.099Z,1.00
2022-11-16T11:29:59.948Z,1.10
2022-11-16T11:32:42.179Z,1.33
2022-11-16T11:35:28.683Z,0.90
2022-11-16T11:38:07.650Z,0.90
2022-11-16T11:40:38.737Z,1.00
2022-11-16T11:43:25.404Z,0.93
2022-11-16T11:46:47.326Z,1.15
2022-11-16T11:49:33.431Z,0.95
2022-11-16T11:52:13.369Z,1.15
2022-11-16T11:54:49.703Z,0.80
2022-11-16T11:59:56.395Z,0.93
2022-11-16T12:02:35.620Z,0.95
2022-11-16T12:05:21.265Z,0.90
2022-11-16T12:08:13.755Z,1.00
2022-11-16T12:10:48.667Z,1.02
2022-11-16T12:13:41.502Z,0.93
2022-11-16T12:17:07.937Z,1.40
2022-11-16T12:19:57.643Z,0.68
2022-11-16T12:22:52.052Z,0.90
2022-11-16T12:25:51.908Z,0.90
2022-11-16T12:28:40.796Z,0.68
2022-11-16T12:31:32.204Z,0.63
2022-11-16T12:34:39.359Z,0.80
2022-11-16T12:37:22.071Z,0.90
2022-11-16T12:40:18.223Z,0.80
2022-11-16T12:43:02.317Z,0.60
2022-11-16T12:45:47.799Z,0.90
2022-11-16T12:48:33.026Z,0.70
2022-11-16T12:51:32.095Z,1.17
2022-11-16T12:54:08.423Z,0.70
2022-11-16T12:56:48.661Z,0.75
2022-11-16T12:59:52.897Z,0.90
2022-11-16T13:02:48.216Z,1.30
2022-11-16T13:05:24.342Z,0.60
2022-11-16T13:08:07.179Z,1.00
2022-11-16T13:10:44.228Z,1.20
2022-11-16T13:13:40.108Z,0.95
2022-11-16T13:16:12.156Z,0.93
2022-11-16T13:18:44.192Z,1.20
2022-11-16T13:21:36.139Z,1.30
2022-11-16T13:24:23.637Z,0.95
2022-11-16T13:27:31.969Z,1.20
2022-11-16T13:30:06.413Z,1.25
2022-11-16T13:32:51.191Z,1.40
2022-11-16T13:35:22.465Z,0.82
2022-11-16T13:37:53.586Z,1.17
2022-11-16T13:40:29.945Z,0.75
2022-11-16T13:43:20.925Z,0.80
2022-11-16T13:45:51.206Z,0.90
2022-11-16T13:48:27.228Z,0.45
2022-11-16T13:51:05.831Z,1.83
2022-11-16T13:57:07.342Z,0.60
2022-11-16T13:59:38.590Z,0.60
2022-11-16T14:02:28.874Z,0.80
2022-11-16T14:05:03.354Z,0.70
2022-11-16T14:07:51.218Z,0.63
2022-11-16T14:10:46.950Z,1.00
2022-11-16T14:13:34.766Z,1.08
2022-11-16T14:16:23.918Z,0.90
2022-11-16T14:19:02.423Z,0.85
2022-11-16T14:22:08.082Z,1.20
2022-11-16T14:25:12.971Z,0.88
2022-11-16T14:28:25.802Z,0.73
2022-11-16T14:30:59.129Z,0.73
2022-11-16T14:33:39.097Z,0.73
2022-11-16T14:36:12.431Z,0.50
2022-11-16T14:38:44.763Z,0.93
2022-11-16T14:41:24.676Z,0.70
2022-11-16T14:43:59.711Z,0.60
2022-11-16T14:46:37.853Z,0.55
2022-11-16T14:49:15.912Z,0.80
2022-11-16T14:51:50.528Z,0.50
2022-11-16T14:54:34.242Z,0.52
2022-11-16T14:57:07.647Z,0.45
2022-11-16T14:59:37.874Z,0.22
2022-11-16T15:02:22.979Z,0.70
2022-11-16T15:04:54.864Z,0.30
2022-11-16T15:07:26.266Z,0.40
2022-11-16T15:10:00.566Z,0.10
2022-11-16T15:12:43.388Z,0.17
2022-11-16T15:15:13.591Z,0.40
2022-11-16T15:17:54.617Z,0.30
2022-11-16T15:20:26.606Z,0.20
2022-11-16T15:23:00.223Z,0.30
2022-11-16T15:25:33.272Z,0.30
2022-11-16T15:28:15.642Z,0.30
2022-11-16T15:33:31.972Z,0.38
2022-11-16T15:36:02.526Z,0.40
2022-11-16T15:38:34.842Z,0.60
2022-11-16T15:41:06.632Z,0.80
2022-11-16T15:44:01.375Z,0.38
2022-11-16T15:46:36.974Z,0.40
2022-11-16T15:49:34.563Z,0.40
2022-11-16T15:52:05.180Z,0.20
2022-11-16T15:54:57.300Z,0.40
2022-11-16T15:57:27.723Z,0.30
2022-11-16T15:59:59.543Z,0.63
2022-11-16T16:02:32.428Z,0.35
2022-11-16T16:05:02.818Z,0.30
2022-11-16T16:07:45.268Z,0.50
2022-11-16T16:10:21.324Z,0.30
2022-11-16T16:15:37.880Z,0.47
2022-11-16T16:18:38.128Z,0.20
2022-11-16T16:21:08.511Z,0.43
2022-11-16T16:23:58.254Z,0.22
2022-11-16T16:26:28.690Z,0.30
2022-11-16T16:28:59.032Z,0.30
2022-11-16T16:31:29.340Z,0.22
2022-11-16T16:34:00.790Z,0.10
2022-11-16T16:36:31.234Z,0.52
2022-11-16T16:39:01.331Z,0.30
2022-11-16T16:41:31.963Z,0.20
2022-11-16T16:44:02.302Z,0.30
2022-11-16T16:46:32.492Z,0.20
2022-11-16T16:49:02.839Z,0.10
2022-11-16T16:51:33.234Z,0.20
2022-11-16T16:54:03.349Z,0.10
2022-11-16T16:56:33.721Z,0.80
2022-11-16T16:59:04.016Z,0.40
2022-11-16T17:01:34.351Z,0.50
2022-11-16T17:04:04.754Z,0.55
2022-11-16T17:06:35.219Z,0.20
2022-11-16T17:09:05.992Z,0.10
2022-11-16T17:11:36.442Z,0.43
2022-11-16T17:14:07.168Z,0.47
2022-11-16T17:16:38.024Z,0.25
2022-11-16T17:19:08.334Z,0.10
2022-11-16T17:21:38.827Z,0.25
2022-11-16T17:24:09.231Z,0.20
2022-11-16T17:26:39.650Z,0.20
2022-11-16T17:29:09.919Z,0.30
2022-11-16T17:31:44.682Z,0.20
2022-11-16T17:34:15.025Z,0.40
2022-11-16T17:36:46.232Z,0.35
2022-11-16T17:39:17.217Z,0.47
2022-11-16T17:41:47.998Z,0.32
2022-11-16T17:44:21.797Z,0.20
2022-11-16T17:46:52.652Z,0.40
2022-11-16T17:49:23.102Z,0.50
2022-11-16T17:51:53.448Z,0.40
2022-11-16T17:54:23.738Z,0.50
2022-11-16T17:56:54.136Z,0.30
2022-11-16T17:59:29.227Z,0.25
2022-11-16T18:02:00.322Z,0.20
2022-11-16T18:04:30.715Z,0.20
2022-11-16T18:07:02.338Z,0.20
2022-11-16T18:09:32.738Z,0.30
2022-11-16T18:12:03.106Z,0.20
2022-11-16T18:14:33.492Z,0.30
2022-11-16T18:17:03.832Z,0.40
2022-11-16T18:19:34.161Z,0.40
2022-11-16T18:22:04.345Z,0.30
2022-11-16T18:24:34.778Z,0.28
2022-11-16T18:27:05.106Z,0.30
2022-11-16T18:29:36.581Z,0.20
2022-11-16T18:32:07.085Z,0.40
2022-11-16T18:34:37.354Z,0.20
2022-11-16T18:37:07.831Z,0.10
2022-11-16T18:39:38.179Z,0.17
2022-11-16T18:42:09.370Z,0.20
2022-11-16T18:44:39.668Z,0.30
2022-11-16T18:47:10.002Z,0.03
2022-11-16T18:49:40.361Z,0.15
2022-11-16T18:52:10.678Z,0.10
2022-11-16T18:54:40.977Z,0.15
2022-11-16T18:57:11.680Z,0.20
2022-11-16T18:59:42.014Z,0.10
2022-11-16T19:02:15.483Z,0.00
2022-11-16T19:04:45.816Z,0.13
2022-11-16T19:07:16.247Z,0.10
2022-11-16T19:09:46.586Z,0.30
2022-11-16T19:12:16.924Z,0.22
2022-11-16T19:14:47.256Z,0.20
2022-11-16T19:17:17.527Z,0.30
2022-11-16T19:19:47.913Z,0.20
2022-11-16T19:22:18.430Z,0.35
2022-11-16T19:24:48.593Z,0.30
2022-11-16T19:27:18.918Z,0.20
2022-11-16T19:29:49.240Z,0.20
2022-11-16T19:32:19.451Z,0.52
2022-11-16T19:34:49.729Z,0.10
2022-11-16T19:37:20.228Z,0.20
2022-11-16T19:39:50.640Z,0.10
2022-11-16T19:42:21.248Z,0.28
2022-11-16T19:44:51.509Z,0.13
2022-11-16T19:47:24.355Z,0.30
2022-11-16T19:49:55.206Z,0.20
2022-11-16T19:52:25.530Z,0.20
2022-11-16T19:54:56.846Z,0.10
2022-11-16T19:57:27.257Z,0.17
2022-11-16T19:59:57.730Z,0.08
2022-11-16T20:02:28.086Z,0.13
2022-11-16T20:04:58.349Z,0.22
2022-11-16T20:07:28.620Z,0.30
2022-11-16T20:09:59.704Z,0.20
2022-11-16T20:12:30.393Z,0.20
2022-11-16T20:15:02.640Z,0.30
2022-11-16T20:17:33.020Z,0.30
2022-11-16T20:20:03.332Z,0.50
2022-11-16T20:22:33.603Z,1.02
2022-11-16T20:25:03.880Z,1.38
2022-11-16T20:27:33.965Z,1.40
2022-11-16T20:30:09.251Z,2.00
2022-11-16T20:32:40.382Z,1.40
2022-11-16T20:35:13.720Z,1.80
2022-11-16T20:40:17.049Z,1.42
2022-11-16T20:42:49.246Z,0.93
2022-11-16T20:45:19.545Z,0.75
2022-11-16T20:47:49.857Z,1.00
2022-11-16T20:50:23.199Z,0.60
2022-11-16T20:52:53.550Z,0.70
2022-11-16T20:55:23.855Z,0.30
2022-11-16T20:57:54.192Z,0.40
2022-11-16T21:00:24.504Z,0.38
2022-11-16T21:02:55.255Z,0.35
2022-11-16T21:05:25.542Z,0.25
2022-11-16T21:07:55.682Z,0.28
2022-11-16T21:10:26.015Z,0.43
2022-11-16T21:13:14.588Z,0.30
2022-11-16T21:18:14.396Z,0.30
2022-11-16T21:20:44.716Z,0.15
2022-11-16T21:23:15.036Z,0.25
2022-11-16T21:25:45.282Z,0.00
2022-11-16T21:28:15.562Z,0.20
2022-11-16T21:30:56.992Z,0.10
2022-11-16T21:33:27.894Z,0.10
2022-11-16T21:35:58.244Z,0.77
2022-11-16T21:38:28.547Z,1.05
2022-11-16T21:40:58.839Z,0.68
2022-11-16T21:43:30.255Z,0.80
2022-11-16T21:46:05.553Z,0.50
2022-11-16T21:48:37.102Z,1.35
2022-11-16T21:51:12.763Z,1.80
2022-11-16T21:53:43.317Z,3.42
2022-11-16T21:56:19.271Z,3.70
2022-11-16T21:58:51.187Z,3.83
2022-11-16T22:01:22.501Z,4.78
2022-11-16T22:04:11.908Z,3.78
2022-11-16T22:07:14.291Z,3.83
2022-11-16T22:09:44.617Z,3.00
2022-11-16T22:12:14.935Z,2.17
2022-11-16T22:14:45.310Z,1.77
2022-11-16T22:17:15.660Z,2.08
2022-11-16T22:19:45.957Z,1.63
2022-11-16T22:22:16.286Z,1.60
2022-11-16T22:24:46.769Z,1.60
2022-11-16T22:27:18.254Z,1.80
2022-11-16T22:29:48.601Z,1.60
2022-11-16T22:32:18.941Z,1.50
2022-11-16T22:34:49.538Z,1.63
2022-11-16T22:37:20.358Z,1.02
2022-11-16T22:39:50.905Z,1.75
2022-11-16T22:42:21.204Z,2.22
2022-11-16T22:44:52.004Z,1.75
2022-11-16T22:47:22.335Z,2.38
2022-11-16T22:49:53.470Z,2.22
2022-11-16T22:52:23.776Z,2.30
2022-11-16T22:54:54.225Z,2.15
2022-11-16T22:57:24.616Z,2.80
2022-11-16T22:59:54.984Z,2.13
2022-11-16T23:02:25.291Z,2.15
2022-11-16T23:04:55.477Z,2.95
2022-11-16T23:07:27.835Z,1.67
2022-11-16T23:09:58.423Z,2.20
2022-11-16T23:12:47.210Z,1.80
2022-11-16T23:15:35.643Z,2.05
2022-11-16T23:18:06.907Z,2.35
2022-11-16T23:20:57.753Z,1.90
2022-11-16T23:23:47.207Z,2.30
2022-11-16T23:26:43.070Z,2.97
2022-11-16T23:29:13.906Z,2.28
2022-11-16T23:31:44.469Z,2.45
2022-11-16T23:34:14.781Z,1.42
2022-11-16T23:36:45.334Z,1.63
2022-11-16T23:39:16.995Z,1.90
2022-11-16T23:42:06.097Z,1.80
2022-11-16T23:44:36.363Z,1.45
2022-11-16T23:47:07.082Z,0.93
2022-11-16T23:49:37.398Z,1.75
2022-11-16T23:52:07.836Z,2.00
2022-11-16T23:54:38.165Z,2.28
2022-11-16T23:57:08.897Z,1.88
2022-11-16T23:59:40.712Z,1.85
